Time;durP1;ratioP1;P1;durP2;ratioP2;P2;SDS_P1;SDS_P2;PMS_P1;PMS_P2;Temp;Humidity;BMP_temperature;BMP_pressure;BME280_temperature;BME280_humidity;BME280_pressure;Samples;Min_cycle;Max_cycle;Signal;HPM_P1;HPM_P2
2022/11/27 00:00:36;;;;;;;;;6.75;5.50;;;;;11.65;49.42;101118.47;5056283;28;45501;-74
2022/11/27 00:03:02;;;;;;;;;5.75;5.75;;;;;11.67;49.34;101119.41;5056274;28;45436;-73
2022/11/27 00:05:27;;;;;;;;;2.25;2.25;;;;;11.67;49.24;101104.59;5056024;28;46160;-73
2022/11/27 00:07:53;;;;;;;;;10.00;9.00;;;;;11.73;49.24;101110.03;5056097;28;45328;-73
2022/11/27 00:10:18;;;;;;;;;4.00;4.00;;;;;11.67;49.06;101090.63;5056013;28;45333;-73
2022/11/27 00:12:44;;;;;;;;;5.75;5.75;;;;;11.76;49.39;101114.50;5056285;28;45374;-73
2022/11/27 00:15:09;;;;;;;;;4.00;2.67;;;;;11.72;49.31;101121.38;5056049;28;45354;-74
2022/11/27 00:17:35;;;;;;;;;5.25;5.00;;;;;11.65;49.18;101098.41;5054454;28;45492;-73
2022/11/27 00:20:00;;;;;;;;;1.00;1.00;;;;;11.81;48.70;101120.78;5057641;28;45404;-74
2022/11/27 00:22:26;;;;;;;;;1.67;1.67;;;;;11.82;48.99;101114.72;5059755;28;45357;-73
2022/11/27 00:24:52;;;;;;;;;1.00;1.00;;;;;11.85;48.79;101111.31;5059333;28;46350;-74
2022/11/27 00:27:18;;;;;;;;;3.00;2.00;;;;;11.83;49.44;101103.41;5059158;28;45449;-74
2022/11/27 00:29:44;;;;;;;;;1.33;1.33;;;;;11.89;48.89;101100.13;5059295;28;45441;-72
2022/11/27 00:32:09;;;;;;;;;1.33;1.00;;;;;11.91;48.87;101091.47;5059875;28;45286;-75
2022/11/27 00:34:35;;;;;;;;;2.00;1.33;;;;;11.93;48.82;101088.91;5059092;28;45524;-74
2022/11/27 00:37:00;;;;;;;;;1.00;1.00;;;;;11.92;48.48;101088.03;5059043;28;45522;-73
2022/11/27 00:39:26;;;;;;;;;1.00;1.00;;;;;12.00;48.42;101079.56;5059140;28;45481;-74
2022/11/27 00:41:52;;;;;;;;;0.00;0.00;;;;;11.98;48.23;101074.25;5059220;28;45479;-74
2022/11/27 00:44:18;;;;;;;;;0.33;0.00;;;;;11.92;48.48;101063.59;5058494;28;46179;-73
2022/11/27 00:46:44;;;;;;;;;0.00;0.00;;;;;12.02;47.43;101057.81;5058814;28;45452;-72
2022/11/27 00:49:11;;;;;;;;;0.00;0.00;;;;;12.02;48.08;101063.03;5057943;28;45508;-73
2022/11/27 00:51:37;;;;;;;;;0.00;0.00;;;;;11.93;47.82;101036.56;5059336;28;45465;-74
2022/11/27 00:54:03;;;;;;;;;0.00;0.00;;;;;11.90;47.74;101041.72;5058695;28;46139;-74
2022/11/27 00:56:34;;;;;;;;;0.67;0.00;;;;;11.97;47.81;101054.13;5058984;28;45514;-74
2022/11/27 00:59:00;;;;;;;;;1.00;0.67;;;;;11.98;48.09;101055.03;5057637;28;45464;-74
2022/11/27 01:01:28;;;;;;;;;0.00;0.00;;;;;11.96;47.98;101055.00;5059082;28;45476;-74
2022/11/27 01:03:56;;;;;;;;;0.00;0.00;;;;;11.89;48.02;101055.63;5058713;28;45442;-74
2022/11/27 01:06:21;;;;;;;;;0.00;0.00;;;;;11.82;48.09;101043.16;5056347;28;45310;-74
2022/11/27 01:08:48;;;;;;;;;0.00;0.00;;;;;11.85;47.96;101048.47;5058940;28;45422;-74
2022/11/27 01:11:23;;;;;;;;;0.00;0.00;;;;;11.84;48.03;101051.94;5059079;28;45578;-74
2022/11/27 01:13:49;;;;;;;;;0.00;0.00;;;;;11.84;47.95;101046.72;5056853;28;45499;-73
2022/11/27 01:16:17;;;;;;;;;0.00;0.00;;;;;11.81;48.11;101041.38;5058788;28;45393;-72
2022/11/27 01:18:45;;;;;;;;;0.00;0.00;;;;;11.74;48.16;101042.91;5056864;28;45356;-74
2022/11/27 01:21:15;;;;;;;;;0.00;0.00;;;;;11.75;48.28;101034.19;5059278;28;45444;-73
2022/11/27 01:23:41;;;;;;;;;0.00;0.00;;;;;11.80;47.52;101035.25;5058629;28;45484;-73
2022/11/27 01:26:09;;;;;;;;;0.00;0.00;;;;;11.78;47.83;101026.47;5058476;28;45453;-74
2022/11/27 01:28:35;;;;;;;;;0.00;0.00;;;;;11.72;48.31;101036.72;5058899;28;45582;-74
2022/11/27 01:31:11;;;;;;;;;0.00;0.00;;;;;11.59;47.98;101024.06;5055527;28;45291;-74
2022/11/27 01:33:36;;;;;;;;;0.00;0.00;;;;;11.69;48.46;101047.97;5058315;28;45280;-74
2022/11/27 01:36:04;;;;;;;;;1.00;0.00;;;;;11.52;48.48;101007.28;5058086;28;45168;-73
2022/11/27 01:38:30;;;;;;;;;0.00;0.00;;;;;11.44;48.12;100998.25;5058099;28;45629;-75
2022/11/27 01:41:07;;;;;;;;;0.00;0.00;;;;;11.72;48.22;101032.38;5058410;28;45500;-74
2022/11/27 01:43:41;;;;;;;;;0.67;0.00;;;;;11.75;47.93;101026.34;5057959;28;45491;-74
2022/11/27 01:46:27;;;;;;;;;0.00;0.00;;;;;11.81;47.43;101018.69;5056214;28;45581;-74
2022/11/27 01:48:58;;;;;;;;;0.00;0.00;;;;;11.74;47.68;101024.59;5057150;28;45523;-74
2022/11/27 01:51:23;;;;;;;;;0.00;0.00;;;;;11.77;47.41;101023.78;5056210;28;45405;-74
2022/11/27 01:53:52;;;;;;;;;0.00;0.00;;;;;11.75;47.48;101024.59;5057751;28;45261;-74
2022/11/27 01:56:18;;;;;;;;;0.00;0.00;;;;;11.70;48.04;101022.69;5058066;28;45440;-74
2022/11/27 01:58:44;;;;;;;;;0.00;0.00;;;;;11.68;47.95;101016.53;5058432;28;45370;-75
2022/11/27 02:01:10;;;;;;;;;0.00;0.00;;;;;11.71;47.73;101014.00;5058116;28;45522;-74
2022/11/27 02:03:36;;;;;;;;;0.00;0.00;;;;;11.72;47.71;101000.97;5057709;28;45512;-74
2022/11/27 02:06:01;;;;;;;;;0.00;0.00;;;;;11.70;48.25;101000.03;5058029;28;45475;-73
2022/11/27 02:08:27;;;;;;;;;0.00;0.00;;;;;11.69;48.46;101000.84;5056581;28;45289;-74
2022/11/27 02:11:00;;;;;;;;;0.00;0.00;;;;;11.62;48.72;101013.69;5058183;28;45472;-73
2022/11/27 02:13:31;;;;;;;;;0.00;0.00;;;;;11.54;49.30;101011.72;5055768;28;45419;-74
2022/11/27 02:16:06;;;;;;;;;0.00;0.00;;;;;11.59;48.93;101017.09;5057562;28;45387;-75
2022/11/27 02:18:45;;;;;;;;;0.00;0.00;;;;;11.55;49.12;101015.22;5057653;28;45514;-74
2022/11/27 02:21:34;;;;;;;;;0.00;0.00;;;;;11.57;48.67;101005.69;5057912;28;45294;-74
2022/11/27 02:24:11;;;;;;;;;0.00;0.00;;;;;11.59;48.33;100998.78;5057170;28;46371;-74
2022/11/27 02:26:55;;;;;;;;;0.00;0.00;;;;;11.62;48.18;100977.97;5057651;28;45806;-73
2022/11/27 02:29:28;;;;;;;;;0.00;0.00;;;;;11.60;48.25;100971.78;5054900;28;45338;-73
2022/11/27 02:32:01;;;;;;;;;0.00;0.00;;;;;11.57;48.49;100986.50;5057548;28;45581;-73
2022/11/27 02:34:43;;;;;;;;;0.00;0.00;;;;;11.62;48.55;100987.50;5055447;28;46410;-75
2022/11/27 02:37:20;;;;;;;;;0.00;0.00;;;;;11.53;47.94;100954.97;5055816;28;45467;-74
2022/11/27 02:39:57;;;;;;;;;0.00;0.00;;;;;11.65;47.94;100979.78;5055729;28;45213;-75
2022/11/27 02:42:26;;;;;;;;;0.00;0.00;;;;;11.70;47.41;100981.72;5055001;28;45463;-73
2022/11/27 02:45:00;;;;;;;;;0.00;0.00;;;;;11.76;47.46;100957.47;5056458;28;46116;-72
2022/11/27 02:47:28;;;;;;;;;0.00;0.00;;;;;11.73;47.31;100960.84;5057073;28;45598;-72
2022/11/27 02:49:56;;;;;;;;;0.00;0.00;;;;;11.62;47.59;100935.19;5057203;28;45594;-74
2022/11/27 02:52:25;;;;;;;;;0.00;0.00;;;;;11.69;47.80;100945.91;5057190;28;45325;-73
2022/11/27 02:54:54;;;;;;;;;1.00;0.00;;;;;11.57;47.99;100942.88;5057010;28;45504;-73
2022/11/27 02:57:24;;;;;;;;;0.00;0.00;;;;;11.45;48.64;100938.16;5057083;28;45409;-72
2022/11/27 02:59:54;;;;;;;;;0.33;0.33;;;;;11.45;48.76;100968.66;5057303;28;45725;-73
2022/11/27 03:02:27;;;;;;;;;0.00;0.00;;;;;11.46;48.42;100955.63;5057310;28;45429;-73
2022/11/27 03:04:55;;;;;;;;;0.00;0.00;;;;;11.47;48.29;100956.53;5056779;28;46158;-74
2022/11/27 03:07:36;;;;;;;;;0.00;0.00;;;;;11.47;48.34;100957.41;5054114;28;45425;-73
2022/11/27 03:10:16;;;;;;;;;0.00;0.00;;;;;11.38;48.17;100935.28;5054593;28;45936;-73
2022/11/27 03:12:42;;;;;;;;;1.00;0.00;;;;;11.51;47.99;100948.81;5054686;28;45349;-73
2022/11/27 03:15:08;;;;;;;;;0.00;0.00;;;;;11.54;48.05;100945.44;5056664;28;45397;-71
2022/11/27 03:17:36;;;;;;;;;0.00;0.00;;;;;11.54;48.15;100958.50;5056804;28;45645;-73
2022/11/27 03:20:09;;;;;;;;;1.00;0.00;;;;;11.58;47.94;100955.16;5054382;28;45448;-73
2022/11/27 03:22:35;;;;;;;;;0.00;0.00;;;;;11.52;47.87;100949.72;5056590;28;46173;-73
2022/11/27 03:25:01;;;;;;;;;0.00;0.00;;;;;11.61;47.40;100955.22;5053625;28;45638;-74
2022/11/27 03:27:34;;;;;;;;;0.00;0.00;;;;;11.64;47.30;100957.06;5056544;28;45610;-73
2022/11/27 03:30:02;;;;;;;;;0.00;0.00;;;;;11.65;47.11;100957.09;5056693;28;45495;-73
2022/11/27 03:32:31;;;;;;;;;0.00;0.00;;;;;11.63;47.73;100952.66;5056854;28;45331;-74
2022/11/27 03:34:56;;;;;;;;;0.00;0.00;;;;;11.62;47.69;100948.25;5056215;28;46199;-73
2022/11/27 03:37:23;;;;;;;;;0.00;0.00;;;;;11.66;47.40;100955.41;5056243;28;45212;-73
2022/11/27 03:39:49;;;;;;;;;0.00;0.00;;;;;11.71;47.30;100951.19;5056951;28;45332;-71
2022/11/27 03:42:15;;;;;;;;;0.00;0.00;;;;;11.70;47.41;100952.03;5056876;28;45592;-73
2022/11/27 03:45:18;;;;;;;;;0.00;0.00;;;;;11.66;47.76;100937.97;5054894;28;47119;-73
2022/11/27 03:48:10;;;;;;;;;0.00;0.00;;;;;11.65;47.75;100940.53;5054138;28;45289;-73
2022/11/27 03:51:19;;;;;;;;;0.00;0.00;;;;;11.64;47.53;100931.78;5055782;28;45562;-73
2022/11/27 03:54:14;;;;;;;;;0.00;0.00;;;;;11.61;47.48;100926.44;5057305;28;45306;-73
2022/11/27 03:56:54;;;;;;;;;0.00;0.00;;;;;11.58;47.83;100915.91;5056138;28;45385;-74
2022/11/27 03:59:29;;;;;;;;;0.00;0.00;;;;;11.53;47.96;100912.22;5056665;28;45507;-73
2022/11/27 04:01:54;;;;;;;;;0.33;0.00;;;;;11.31;48.01;100860.97;5056467;28;45305;-73
2022/11/27 04:04:20;;;;;;;;;0.00;0.00;;;;;11.47;48.15;100893.72;5057095;28;45436;-73
2022/11/27 04:06:46;;;;;;;;;0.00;0.00;;;;;11.39;48.56;100893.47;5056752;28;46050;-73
2022/11/27 04:09:11;;;;;;;;;0.00;0.00;;;;;11.10;48.79;100861.16;5056758;28;45433;-73
2022/11/27 04:11:37;;;;;;;;;0.00;0.00;;;;;11.25;49.20;100890.41;5057312;28;45218;-73
2022/11/27 04:14:02;;;;;;;;;1.00;0.00;;;;;11.18;49.09;100891.06;5057314;28;45488;-73
2022/11/27 04:16:28;;;;;;;;;0.00;0.00;;;;;11.02;48.73;100852.16;5056863;28;45455;-73
2022/11/27 04:18:53;;;;;;;;;0.00;0.00;;;;;11.34;48.52;100901.19;5056798;28;45428;-73
2022/11/27 04:21:19;;;;;;;;;0.00;0.00;;;;;11.39;48.44;100901.31;5057239;28;45357;-73
2022/11/27 04:23:45;;;;;;;;;0.00;0.00;;;;;11.21;48.30;100853.66;5056929;28;45450;-73
2022/11/27 04:26:10;;;;;;;;;1.00;0.00;;;;;11.46;47.88;100879.78;5056677;28;46050;-73
2022/11/27 04:28:36;;;;;;;;;0.00;0.00;;;;;11.52;47.77;100881.69;5056741;28;45301;-73
2022/11/27 04:31:01;;;;;;;;;0.00;0.00;;;;;11.42;47.68;100871.75;5056766;28;45412;-73
2022/11/27 04:33:27;;;;;;;;;0.00;0.00;;;;;11.53;48.22;100886.06;5057040;28;45398;-74
2022/11/27 04:35:53;;;;;;;;;0.00;0.00;;;;;11.49;47.73;100878.97;5056822;28;45228;-72
2022/11/27 04:38:20;;;;;;;;;0.00;0.00;;;;;11.50;48.16;100888.59;5056997;28;45566;-73
2022/11/27 04:40:45;;;;;;;;;0.00;0.00;;;;;11.50;47.87;100884.25;5056779;28;45245;-72
2022/11/27 04:43:11;;;;;;;;;0.00;0.00;;;;;11.53;47.90;100886.94;5056586;28;45419;-74
2022/11/27 04:45:38;;;;;;;;;0.00;0.00;;;;;11.49;48.13;100884.19;5056511;28;46110;-74
2022/11/27 04:48:04;;;;;;;;;0.33;0.00;;;;;11.50;48.28;100883.38;5056278;28;45818;-74
2022/11/27 04:50:29;;;;;;;;;0.00;0.00;;;;;11.13;47.84;100829.88;5056516;28;45415;-74
2022/11/27 04:52:55;;;;;;;;;0.00;0.00;;;;;11.44;47.99;100883.16;5056649;28;45310;-73
2022/11/27 04:55:21;;;;;;;;;0.00;0.00;;;;;11.49;47.72;100892.06;5056650;28;45443;-73
2022/11/27 04:57:47;;;;;;;;;1.00;0.00;;;;;11.45;48.15;100880.59;5056294;28;45525;-74
2022/11/27 05:00:13;;;;;;;;;0.00;0.00;;;;;11.48;47.90;100885.03;5056504;28;45422;-74
2022/11/27 05:02:39;;;;;;;;;1.00;1.00;;;;;11.39;48.02;100884.75;5056522;28;45530;-75
2022/11/27 05:05:04;;;;;;;;;0.00;0.00;;;;;11.42;47.92;100885.75;5056177;28;45985;-75
2022/11/27 05:07:30;;;;;;;;;0.00;0.00;;;;;11.24;47.83;100858.97;5058642;28;45518;-74
2022/11/27 05:09:55;;;;;;;;;0.00;0.00;;;;;11.44;47.80;100883.16;5059792;28;45413;-75
2022/11/27 05:12:21;;;;;;;;;0.00;0.00;;;;;11.44;47.87;100881.44;5060146;28;45469;-74
2022/11/27 05:14:46;;;;;;;;;0.67;0.00;;;;;11.42;47.78;100884.84;5059524;28;45321;-75
2022/11/27 05:17:12;;;;;;;;;0.00;0.00;;;;;11.39;48.27;100889.97;5059536;28;45476;-74
2022/11/27 05:19:38;;;;;;;;;0.00;0.00;;;;;11.32;48.58;100889.78;5059689;28;45377;-75
2022/11/27 05:22:03;;;;;;;;;5.00;4.33;;;;;11.26;48.90;100897.44;5059871;28;45249;-75
2022/11/27 05:24:29;;;;;;;;;15.75;14.25;;;;;11.22;48.79;100897.25;5059161;28;46029;-75
2022/11/27 05:26:55;;;;;;;;;9.00;6.75;;;;;11.11;48.64;100891.69;5059727;28;45344;-74
2022/11/27 05:29:21;;;;;;;;;5.00;2.00;;;;;11.10;49.06;100898.66;5060048;28;45579;-74
2022/11/27 05:31:47;;;;;;;;;1.00;0.00;;;;;10.88;48.02;100834.31;5059540;28;45484;-74
2022/11/27 05:34:13;;;;;;;;;0.00;0.00;;;;;11.30;47.86;100888.84;5059420;28;46266;-75
2022/11/27 05:36:40;;;;;;;;;0.00;0.00;;;;;11.11;47.26;100827.22;5059315;28;45382;-74
2022/11/27 05:39:07;;;;;;;;;0.00;0.00;;;;;11.47;47.57;100880.66;5059283;28;45382;-75
2022/11/27 05:41:34;;;;;;;;;0.00;0.00;;;;;11.40;47.09;100849.88;5059518;28;45309;-75
2022/11/27 05:44:00;;;;;;;;;0.00;0.00;;;;;11.63;46.82;100868.94;5058931;28;46017;-75
2022/11/27 05:46:25;;;;;;;;;0.00;0.00;;;;;11.63;47.25;100864.56;5059232;28;45444;-75
2022/11/27 05:48:51;;;;;;;;;0.00;0.00;;;;;11.42;47.65;100833.44;5059160;28;45435;-76
2022/11/27 05:51:17;;;;;;;;;11.75;11.00;;;;;11.55;47.73;100864.34;5059279;28;45283;-75
2022/11/27 05:53:43;;;;;;;;;1.00;1.00;;;;;11.56;47.76;100860.03;5058641;28;45539;-75
2022/11/27 05:56:21;;;;;;;;;0.00;0.00;;;;;11.54;47.48;100844.25;5059136;28;45453;-75
2022/11/27 05:58:47;;;;;;;;;0.00;0.00;;;;;11.58;47.46;100847.88;5057992;28;45442;-74
2022/11/27 06:01:14;;;;;;;;;0.00;0.00;;;;;11.56;47.56;100841.69;5059458;28;45237;-74
2022/11/27 06:03:40;;;;;;;;;0.00;0.00;;;;;11.46;47.46;100830.06;5058754;28;45304;-74
2022/11/27 06:06:08;;;;;;;;;1.00;0.00;;;;;11.55;47.64;100853.88;5058789;28;45426;-73
2022/11/27 06:08:35;;;;;;;;;0.67;0.00;;;;;11.49;47.87;100851.06;5058875;28;45376;-74
2022/11/27 06:11:09;;;;;;;;;0.00;0.00;;;;;11.47;47.67;100846.63;5058912;28;45439;-75
2022/11/27 06:13:34;;;;;;;;;0.00;0.00;;;;;11.40;47.92;100850.81;5058500;28;45301;-75
2022/11/27 06:16:21;;;;;;;;;0.00;0.00;;;;;11.50;47.50;100847.63;5058588;28;45361;-75
2022/11/27 06:18:54;;;;;;;;;0.00;0.00;;;;;11.46;47.54;100847.47;5058431;28;45203;-74
2022/11/27 06:21:21;;;;;;;;;0.00;0.00;;;;;11.40;48.02;100839.44;5058802;28;45283;-74
2022/11/27 06:23:47;;;;;;;;;1.00;0.00;;;;;11.41;47.64;100839.47;5058141;28;45446;-73
2022/11/27 06:26:15;;;;;;;;;0.00;0.00;;;;;11.49;47.48;100837.13;5058454;28;45360;-75
2022/11/27 06:28:41;;;;;;;;;0.00;0.00;;;;;11.44;47.96;100834.38;5058522;28;45230;-75
2022/11/27 06:31:10;;;;;;;;;0.00;0.00;;;;;11.17;48.02;100797.75;5058586;28;45337;-75
2022/11/27 06:33:36;;;;;;;;;0.00;0.00;;;;;11.33;48.31;100833.13;5058316;28;46295;-74
2022/11/27 06:36:03;;;;;;;;;0.00;0.00;;;;;11.11;48.45;100808.91;5056972;28;45406;-75
2022/11/27 06:38:31;;;;;;;;;0.00;0.00;;;;;11.25;48.15;100822.41;5058526;28;45396;-74
2022/11/27 06:41:05;;;;;;;;;0.00;0.00;;;;;11.23;48.58;100826.72;5058767;28;45298;-75
2022/11/27 06:43:30;;;;;;;;;0.00;0.00;;;;;11.17;48.88;100834.38;5057923;28;45982;-73
2022/11/27 06:45:57;;;;;;;;;0.00;0.00;;;;;11.16;48.52;100824.78;5058309;28;45495;-74
2022/11/27 06:48:23;;;;;;;;;0.00;0.00;;;;;11.21;48.41;100820.56;5058181;28;46213;-73
2022/11/27 06:50:48;;;;;;;;;0.00;0.00;;;;;11.13;48.50;100822.03;5058167;28;45231;-74
2022/11/27 06:53:14;;;;;;;;;0.00;0.00;;;;;11.17;48.05;100815.19;5056470;28;45539;-75
2022/11/27 06:55:39;;;;;;;;;0.00;0.00;;;;;11.22;47.73;100816.19;5056859;28;45378;-74
2022/11/27 06:58:05;;;;;;;;;0.00;0.00;;;;;11.27;47.35;100798.94;5058192;28;45492;-75
2022/11/27 07:00:31;;;;;;;;;0.00;0.00;;;;;11.16;47.37;100764.63;5059095;28;45646;-75
2022/11/27 07:02:56;;;;;;;;;0.00;0.00;;;;;11.44;46.40;100799.44;5058318;28;45464;-75
2022/11/27 07:05:23;;;;;;;;;0.00;0.00;;;;;11.29;46.60;100763.25;5057953;28;45345;-74
2022/11/27 07:07:49;;;;;;;;;0.00;0.00;;;;;11.48;46.66;100781.28;5058381;28;45305;-74
2022/11/27 07:10:15;;;;;;;;;1.00;0.00;;;;;11.45;46.54;100772.47;5058109;28;45476;-73
2022/11/27 07:12:40;;;;;;;;;0.00;0.00;;;;;11.34;46.31;100730.31;5058142;28;45971;-73
2022/11/27 07:15:07;;;;;;;;;0.00;0.00;;;;;11.62;46.26;100788.63;5057678;28;45384;-73
2022/11/27 07:17:33;;;;;;;;;0.00;0.00;;;;;11.45;46.03;100741.06;5058388;28;45467;-73
2022/11/27 07:19:58;;;;;;;;;0.00;0.00;;;;;11.44;45.80;100744.50;5059350;28;45337;-74
2022/11/27 07:22:24;;;;;;;;;1.00;0.33;;;;;11.61;46.17;100772.06;5058202;28;46309;-74
2022/11/27 07:24:49;;;;;;;;;1.00;0.00;;;;;11.58;46.24;100750.16;5057430;28;45273;-74
2022/11/27 07:27:14;;;;;;;;;6.00;5.00;;;;;11.75;45.41;100759.38;5057539;28;45505;-73
2022/11/27 07:29:40;;;;;;;;;1.00;1.00;;;;;11.87;45.11;100761.47;5057054;28;45327;-74
2022/11/27 07:32:05;;;;;;;;;4.67;4.00;;;;;11.84;44.95;100761.38;5057397;28;45675;-74
2022/11/27 07:34:31;;;;;;;;;1.50;1.50;;;;;11.90;45.12;100764.22;5057518;28;45279;-73
2022/11/27 07:36:56;;;;;;;;;0.00;0.00;;;;;12.00;44.31;100753.16;5057581;28;45225;-73
2022/11/27 07:39:22;;;;;;;;;1.00;0.00;;;;;11.87;44.17;100716.97;5057594;28;45229;-72
2022/11/27 07:41:47;;;;;;;;;1.00;1.00;;;;;12.20;43.87;100760.66;5057283;28;45459;-73
2022/11/27 07:44:13;;;;;;;;;1.67;1.33;;;;;12.08;43.83;100733.28;5057186;28;45437;-74
2022/11/27 07:46:38;;;;;;;;;3.50;3.00;;;;;12.27;43.61;100765.19;5057610;28;45685;-73
2022/11/27 07:49:04;;;;;;;;;2.00;1.67;;;;;12.35;43.48;100763.66;5057629;28;45219;-71
2022/11/27 07:51:29;;;;;;;;;1.00;1.00;;;;;12.45;43.14;100755.19;5057350;28;46237;-73
2022/11/27 07:53:55;;;;;;;;;1.00;1.00;;;;;12.56;43.05;100758.09;5057211;28;45296;-73
2022/11/27 07:56:20;;;;;;;;;1.67;1.00;;;;;12.64;43.06;100755.69;5057259;28;45341;-74
2022/11/27 07:58:46;;;;;;;;;0.67;0.00;;;;;12.69;43.14;100762.81;5057598;28;45413;-74
2022/11/27 08:01:15;;;;;;;;;0.00;0.00;;;;;12.76;43.21;100766.47;5056957;28;45501;-73
2022/11/27 08:03:43;;;;;;;;;1.67;1.67;;;;;12.83;43.09;100767.47;5057090;28;45587;-72
2022/11/27 08:06:17;;;;;;;;;1.00;1.00;;;;;12.93;42.50;100767.75;5057973;28;45465;-74
2022/11/27 08:08:43;;;;;;;;;0.00;0.00;;;;;12.67;43.12;100722.56;5057271;28;45404;-73
2022/11/27 08:11:25;;;;;;;;;1.67;1.67;;;;;13.06;43.17;100774.16;5056752;28;45482;-74
2022/11/27 08:13:56;;;;;;;;;1.67;1.67;;;;;13.13;43.88;100778.72;5056887;28;45436;-74
2022/11/27 08:16:22;;;;;;;;;1.00;1.00;;;;;13.13;43.19;100755.09;5056912;28;45343;-75
2022/11/27 08:18:47;;;;;;;;;1.00;1.00;;;;;13.26;43.00;100765.88;5057091;28;45489;-74
2022/11/27 08:21:13;;;;;;;;;2.00;2.00;;;;;13.34;42.73;100764.34;5056666;28;45409;-74
2022/11/27 08:23:39;;;;;;;;;2.00;1.00;;;;;13.43;42.91;100756.69;5056644;28;45503;-75
2022/11/27 08:26:07;;;;;;;;;1.33;1.00;;;;;13.52;42.32;100759.47;5057067;28;45459;-74
2022/11/27 08:28:33;;;;;;;;;2.00;2.00;;;;;13.62;42.27;100759.69;5057777;28;45482;-75
2022/11/27 08:31:00;;;;;;;;;1.00;0.00;;;;;13.51;42.99;100704.34;5055250;28;46089;-75
2022/11/27 08:33:26;;;;;;;;;2.00;2.00;;;;;13.84;41.93;100747.88;5056379;28;45478;-75
2022/11/27 08:35:51;;;;;;;;;1.00;1.00;;;;;13.93;41.54;100738.44;5057355;28;45408;-76
2022/11/27 08:38:17;;;;;;;;;0.33;0.00;;;;;14.07;40.75;100722.06;5059898;28;45384;-73
2022/11/27 08:40:43;;;;;;;;;0.00;0.00;;;;;14.17;39.90;100705.59;5057738;28;45947;-74
2022/11/27 08:43:08;;;;;;;;;0.00;0.00;;;;;14.32;40.01;100694.47;5059654;28;46133;-73
2022/11/27 08:45:37;;;;;;;;;0.00;0.00;;;;;14.48;39.04;100695.59;5059976;28;45408;-76
2022/11/27 08:48:02;;;;;;;;;0.00;0.00;;;;;14.51;38.66;100701.81;5060648;28;45375;-71
2022/11/27 08:50:28;;;;;;;;;1.00;0.00;;;;;14.59;38.77;100695.84;5059754;28;45360;-72
2022/11/27 08:52:53;;;;;;;;;1.00;0.00;;;;;14.66;38.79;100685.44;5058023;28;45179;-72
2022/11/27 08:55:19;;;;;;;;;0.00;0.00;;;;;14.60;38.42;100664.28;5053645;28;45396;-71
2022/11/27 08:57:44;;;;;;;;;0.00;0.00;;;;;14.77;38.88;100688.22;5039628;28;45294;-72
2022/11/27 09:00:10;;;;;;;;;1.00;1.00;;;;;14.76;38.79;100678.53;5039073;28;45397;-73
2022/11/27 09:02:36;;;;;;;;;1.00;1.00;;;;;14.89;38.62;100684.88;5039407;28;45230;-72
2022/11/27 09:05:04;;;;;;;;;0.33;0.00;;;;;14.97;38.43;100683.25;5043068;28;45259;-71
2022/11/27 09:07:29;;;;;;;;;2.00;2.00;;;;;15.03;38.37;100688.59;5055043;28;45450;-71
2022/11/27 09:09:55;;;;;;;;;3.00;2.00;;;;;15.08;38.04;100683.38;5038927;28;45938;-71
2022/11/27 09:12:20;;;;;;;;;5.00;5.00;;;;;15.20;38.39;100690.56;5041933;28;45423;-71
2022/11/27 09:14:47;;;;;;;;;5.67;4.67;;;;;15.30;38.06;100687.22;5059196;28;45690;-71
2022/11/27 09:17:12;;;;;;;;;2.67;2.00;;;;;15.26;37.50;100678.38;5058194;28;45209;-71
2022/11/27 09:19:38;;;;;;;;;0.00;0.00;;;;;15.32;37.93;100686.38;5058886;28;45294;-68
2022/11/27 09:22:03;;;;;;;;;1.00;0.00;;;;;15.41;37.71;100684.72;5059443;28;45600;-72
2022/11/27 09:24:29;;;;;;;;;0.67;0.00;;;;;15.51;36.95;100676.94;5058830;28;45493;-72
2022/11/27 09:26:55;;;;;;;;;0.00;0.00;;;;;15.68;36.39;100665.72;5059248;28;45370;-72
2022/11/27 09:29:20;;;;;;;;;0.00;0.00;;;;;15.88;36.15;100663.34;5057785;28;45512;-72
2022/11/27 09:31:46;;;;;;;;;0.00;0.00;;;;;15.98;36.20;100664.31;5057141;28;45433;-69
2022/11/27 09:34:11;;;;;;;;;1.00;1.00;;;;;16.04;36.33;100667.88;5057495;28;45459;-72
2022/11/27 09:36:37;;;;;;;;;1.00;1.00;;;;;16.05;35.79;100656.44;5058606;28;45429;-70
2022/11/27 09:39:03;;;;;;;;;0.67;0.00;;;;;16.00;36.19;100654.66;5057867;28;45463;-73
2022/11/27 09:41:57;;;;;;;;;0.00;0.00;;;;;15.97;36.71;100663.41;5057853;28;45653;-73
2022/11/27 09:44:44;;;;;;;;;0.00;0.00;;;;;15.93;36.34;100663.38;5057146;28;45558;-72
2022/11/27 09:47:33;;;;;;;;;0.00;0.00;;;;;15.87;36.42;100645.75;5055445;28;45463;-71
2022/11/27 09:50:12;;;;;;;;;0.00;0.00;;;;;15.99;36.30;100655.53;5056404;28;45382;-73
2022/11/27 09:52:43;;;;;;;;;0.00;0.00;;;;;16.04;36.19;100646.81;5055438;28;45546;-72
2022/11/27 09:55:33;;;;;;;;;0.00;0.00;;;;;16.11;36.10;100631.91;5058211;28;45607;-72
2022/11/27 09:58:06;;;;;;;;;0.00;0.00;;;;;16.27;35.59;100641.75;5056486;28;45472;-72
2022/11/27 10:00:32;;;;;;;;;0.00;0.00;;;;;16.36;35.38;100643.56;5054906;28;45657;-71
2022/11/27 10:02:59;;;;;;;;;0.00;0.00;;;;;16.41;35.12;100649.75;5057455;28;45429;-71
2022/11/27 10:05:32;;;;;;;;;0.00;0.00;;;;;16.45;35.21;100625.19;5056803;28;45478;-72
2022/11/27 10:08:24;;;;;;;;;0.00;0.00;;;;;16.57;35.31;100641.94;5057705;28;45465;-73
2022/11/27 10:11:07;;;;;;;;;0.00;0.00;;;;;16.64;35.05;100643.75;5051469;28;45532;-72
2022/11/27 10:13:45;;;;;;;;;0.00;0.00;;;;;16.79;34.95;100638.59;5055359;28;45263;-72
2022/11/27 10:16:22;;;;;;;;;0.00;0.00;;;;;16.94;34.04;100629.03;5055257;28;45515;-72
2022/11/27 10:18:57;;;;;;;;;0.67;0.00;;;;;16.99;33.56;100632.53;5057417;28;45579;-71
2022/11/27 10:21:51;;;;;;;;;1.00;1.00;;;;;16.99;34.20;100632.53;5056977;28;45575;-71
2022/11/27 10:25:01;;;;;;;;;2.00;1.00;;;;;16.95;34.81;100642.22;5014516;28;45550;-71
2022/11/27 10:27:40;;;;;;;;;3.00;1.67;;;;;17.06;35.24;100631.72;5037384;28;45365;-70
2022/11/27 10:30:17;;;;;;;;;0.00;0.00;;;;;17.11;34.90;100630.00;5057011;28;45469;-69
2022/11/27 10:32:45;;;;;;;;;1.00;1.00;;;;;17.21;34.72;100634.44;5057091;28;46196;-69
2022/11/27 10:35:19;;;;;;;;;1.00;1.00;;;;;17.37;34.71;100616.88;5054490;28;45456;-71
2022/11/27 10:37:46;;;;;;;;;0.00;0.00;;;;;17.57;34.13;100605.50;5054911;28;45497;-71
2022/11/27 10:40:12;;;;;;;;;2.00;1.00;;;;;17.70;33.40;100613.44;5056812;28;45797;-68
2022/11/27 10:42:54;;;;;;;;;1.00;1.00;;;;;17.87;34.18;100621.44;5057167;28;45959;-71
2022/11/27 10:45:43;;;;;;;;;2.00;2.00;;;;;17.99;32.79;100612.63;5055499;28;45386;-72
2022/11/27 10:48:10;;;;;;;;;1.33;1.33;;;;;18.20;33.29;100608.22;5057104;28;45483;-72
2022/11/27 10:50:35;;;;;;;;;0.00;0.00;;;;;18.34;31.65;100602.91;5056993;28;45813;-70
2022/11/27 10:53:06;;;;;;;;;0.00;0.00;;;;;18.33;31.56;100587.94;5056803;28;46048;-72
2022/11/27 10:56:06;;;;;;;;;1.00;1.00;;;;;18.56;31.93;100612.63;5064369;28;45775;-72
2022/11/27 10:58:35;;;;;;;;;1.00;0.00;;;;;18.63;32.25;100619.63;5054746;28;45435;-71
2022/11/27 11:01:07;;;;;;;;;0.00;0.00;;;;;18.65;31.59;100612.56;5057156;28;45420;-72
2022/11/27 11:03:33;;;;;;;;;0.67;0.67;;;;;18.63;32.12;100617.00;5056168;28;45608;-71
2022/11/27 11:06:04;;;;;;;;;2.00;1.67;;;;;18.64;32.31;100605.53;5056446;28;45511;-71
2022/11/27 11:08:31;;;;;;;;;0.33;0.00;;;;;18.78;31.78;100609.88;5056828;28;45411;-72
2022/11/27 11:10:56;;;;;;;;;0.67;0.67;;;;;18.85;31.96;100604.63;5057180;28;45523;-71
2022/11/27 11:13:28;;;;;;;;;0.67;0.00;;;;;18.91;31.60;100598.41;5056576;28;46177;-75
2022/11/27 11:16:05;;;;;;;;;0.00;0.00;;;;;18.93;31.08;100595.78;5054730;28;45331;-73
2022/11/27 11:18:42;;;;;;;;;4.67;2.00;;;;;19.01;31.53;100580.75;5054080;28;45289;-74
2022/11/27 11:21:28;;;;;;;;;3.00;2.67;;;;;19.15;32.55;100584.19;5056837;28;45527;-73
2022/11/27 11:23:56;;;;;;;;;1.00;1.00;;;;;19.23;32.52;100577.09;5053960;28;45511;-73
2022/11/27 11:26:22;;;;;;;;;4.00;4.00;;;;;19.25;32.80;100567.38;5056026;28;45451;-73
2022/11/27 11:28:52;;;;;;;;;2.67;2.00;;;;;19.24;32.78;100565.63;5053554;28;45353;-73
2022/11/27 11:31:22;;;;;;;;;1.67;1.67;;;;;19.20;32.93;100552.38;5056546;28;45643;-73
2022/11/27 11:34:01;;;;;;;;;2.00;2.00;;;;;19.25;33.36;100554.13;5053647;28;45498;-74